Time;durP1;ratioP1;P1;durP2;ratioP2;P2;SDS_P1;SDS_P2;PMS_P1;PMS_P2;Temp;Humidity;BMP_temperature;BMP_pressure;BME280_temperature;BME280_humidity;BME280_pressure;Samples;Min_cycle;Max_cycle;Signal;HPM_P1;HPM_P2
2024/01/21 12:25:24;;;;;;;49.65;37.72;;;2.30;99.90;;;0.23;100.00;101626.59;5110348;27;21045;-74
2024/01/21 12:27:57;;;;;;;36.33;23.80;;;2.50;99.90;;;1.10;100.00;101757.69;5088815;28;20093;-73
2024/01/21 12:30:25;;;;;;;35.22;23.60;;;2.60;99.90;;;1.17;100.00;101739.75;5078924;28;20139;-73
2024/01/21 12:32:53;;;;;;;68.60;47.95;;;4.10;80.50;;;1.10;100.00;101728.31;5079775;28;20048;-74
2024/01/21 12:35:26;;;;;;;45.58;30.80;;;2.70;15.40;;;0.77;100.00;101689.91;5086276;28;20055;-74
2024/01/21 12:37:53;;;;;;;53.17;42.58;;;3.90;1.00;;;1.05;100.00;101720.34;5069872;28;20118;-73
2024/01/21 12:40:21;;;;;;;45.20;33.78;;;2.70;64.30;;;0.68;100.00;101678.38;5084635;28;20062;-74
2024/01/21 12:42:48;;;;;;;47.42;35.60;;;2.60;1.00;;;0.85;100.00;101691.94;5080515;28;20040;-74
2024/01/21 12:45:16;;;;;;;43.42;32.30;;;2.50;73.50;;;1.07;100.00;101721.28;5070037;28;20416;-74
2024/01/21 12:47:44;;;;;;;41.42;26.25;;;2.60;1.00;;;1.11;100.00;101727.47;5067104;28;20125;-74
2024/01/21 12:50:13;;;;;;;38.90;30.25;;;2.70;1.00;;;1.06;100.00;101719.53;5066879;28;20045;-74
2024/01/21 12:52:40;;;;;;;35.90;25.67;;;2.60;44.10;;;1.24;100.00;101736.56;5084994;28;20400;-73
2024/01/21 12:55:09;;;;;;;33.65;23.05;;;2.60;1.00;;;1.36;100.00;101723.16;5074508;28;20064;-73
2024/01/21 12:57:38;;;;;;;41.03;27.45;;;2.80;99.90;;;1.54;100.00;101731.59;5076734;28;20049;-73
2024/01/21 13:00:07;;;;;;;33.67;22.35;;;2.90;26.40;;;1.64;100.00;101724.13;5075902;28;20045;-74
2024/01/21 13:02:34;;;;;;;32.85;23.05;;;3.10;99.90;;;1.75;100.00;101720.19;5053486;28;20613;-74
2024/01/21 13:05:01;;;;;;;37.10;24.92;;;3.20;99.90;;;1.73;100.00;101695.91;5069874;28;20041;-73
2024/01/21 13:07:29;;;;;;;34.10;24.08;;;3.20;1.00;;;1.89;100.00;101697.28;5067643;28;20071;-74
2024/01/21 13:09:58;;;;;;;42.95;26.70;;;3.40;1.00;;;2.05;100.00;101700.41;5082813;28;20044;-74
2024/01/21 13:12:25;;;;;;;33.70;21.80;;;3.50;99.90;;;2.26;100.00;101703.69;5086272;28;20144;-74
2024/01/21 13:14:52;;;;;;;34.22;22.80;;;4.40;49.50;;;2.62;100.00;101709.97;5067301;28;20053;-74
2024/01/21 13:17:20;;;;;;;32.28;20.77;;;4.00;99.90;;;3.05;100.00;101722.47;5067425;28;20091;-74
2024/01/21 13:19:48;;;;;;;33.92;21.80;;;4.40;99.90;;;3.44;100.00;101718.34;5079376;28;20074;-74
2024/01/21 13:22:16;;;;;;;32.78;22.13;;;4.80;62.00;;;3.79;100.00;101713.19;5081544;28;20078;-74
2024/01/21 13:24:43;;;;;;;35.85;23.15;;;5.00;1.00;;;3.86;100.00;101643.94;5086298;28;20036;-74
2024/01/21 13:27:16;;;;;;;32.88;23.42;;;5.50;99.90;;;4.52;100.00;101714.94;5070351;28;20052;-75
2024/01/21 13:32:29;;;;;;;31.20;22.67;;;6.10;11.70;;;5.15;100.00;101701.47;5067881;28;20598;-74
2024/01/21 13:34:56;;;;;;;27.90;20.65;;;6.30;99.90;;;5.45;100.00;101703.78;5065133;28;20041;-74
2024/01/21 13:37:26;;;;;;;29.27;20.52;;;6.60;99.90;;;5.60;100.00;101647.47;5052614;28;20049;-74
2024/01/21 13:39:53;;;;;;;25.50;18.38;;;7.00;99.90;;;6.08;100.00;101684.88;5059774;28;20507;-74
2024/01/21 13:42:23;;;;;;;26.35;19.90;;;7.40;1.00;;;6.28;100.00;101673.84;5052642;28;20067;-75
2024/01/21 13:44:51;;;;;;;25.25;18.20;;;7.60;99.90;;;6.59;100.00;101672.56;5057034;28;20053;-75
2024/01/21 13:47:19;;;;;;;34.75;20.40;;;7.80;1.00;;;6.52;100.00;101663.75;5065469;28;20051;-75
2024/01/21 13:49:49;;;;;;;26.58;19.10;;;7.90;1.00;;;6.38;100.00;101640.00;5070250;28;20064;-75
2024/01/21 13:52:17;;;;;;;;;;;7.80;1.00;;;5.38;100.00;101653.19;5062681;28;20045;-73
2024/01/21 13:54:45;;;;;;;26.48;18.75;;;7.50;99.90;;;4.99;100.00;101635.97;5061385;28;19921;-73
2024/01/21 13:57:13;;;;;;;26.08;20.45;;;7.00;1.00;;;5.15;100.00;101647.59;5070088;28;20052;-73
2024/01/21 13:59:40;;;;;;;26.92;19.10;;;7.00;1.00;;;5.49;100.00;101652.53;5055595;28;20037;-71
2024/01/21 14:02:09;;;;;;;25.83;18.80;;;7.10;1.00;;;5.60;100.00;101604.00;5059540;28;20110;-70
2024/01/21 14:04:42;;;;;;;25.25;19.85;;;7.30;1.00;;;6.17;100.00;101640.59;5061442;28;20045;-72
2024/01/21 14:07:10;;;;;;;23.63;18.88;;;7.50;1.00;;;5.95;100.00;101611.50;5034821;28;20140;-73
2024/01/21 14:09:38;;;;;;;28.23;21.52;;;7.60;99.90;;;5.82;100.00;101638.28;5070475;28;20041;-71
2024/01/21 14:12:12;;;;;;;33.08;22.17;;;7.40;99.90;;;5.49;100.00;101629.91;5052988;28;20123;-71
2024/01/21 14:14:39;;;;;;;40.65;25.65;;;7.20;99.90;;;4.36;100.00;101463.53;5066797;28;20638;-71
2024/01/21 14:17:06;;;;;;;36.53;25.13;;;7.10;1.00;;;5.22;100.00;101623.34;5051861;28;20132;-71
2024/01/21 14:19:37;;;;;;;40.08;24.77;;;6.90;1.00;;;5.28;100.00;101650.41;5051389;28;20064;-71
2024/01/21 14:22:04;;;;;;;39.03;26.30;;;6.80;1.00;;;5.02;100.00;101611.66;5062001;28;20428;-72
2024/01/21 14:24:36;;;;;;;44.55;26.45;;;6.80;1.00;;;5.15;100.00;101657.13;5064970;28;20041;-72
2024/01/21 14:27:06;;;;;;;36.58;24.73;;;6.70;1.00;;;4.92;100.00;101618.44;5069377;28;20056;-72
2024/01/21 14:29:39;;;;;;;34.13;21.98;;;6.60;1.00;;;5.07;100.00;101650.03;5050729;28;20052;-72
2024/01/21 14:32:06;;;;;;;28.63;20.67;;;6.60;1.00;;;4.77;100.00;101624.22;5060893;28;20033;-72
2024/01/21 14:34:40;;;;;;;26.88;19.70;;;6.50;15.60;;;4.35;100.00;101558.22;5028226;28;20057;-72
2024/01/21 14:37:08;;;;;;;25.70;19.23;;;6.50;55.10;;;4.79;100.00;101654.69;5048325;28;20409;-71
2024/01/21 14:39:36;;;;;;;23.88;19.25;;;6.40;47.20;;;4.66;100.00;101639.66;5059226;28;20048;-71
2024/01/21 14:42:06;;;;;;;28.63;21.25;;;6.30;66.80;;;4.65;100.00;101648.31;5068699;28;20040;-71
2024/01/21 14:44:33;;;;;;;25.48;20.63;;;6.20;89.10;;;4.53;100.00;101657.63;5042025;28;20055;-71
2024/01/21 14:47:00;;;;;;;26.50;21.88;;;6.10;99.90;;;4.53;100.00;101655.03;5075941;28;20408;-71
2024/01/21 14:49:29;;;;;;;133.13;60.92;;;6.10;99.90;;;4.37;100.00;101651.22;5065299;28;20048;-71
2024/01/21 14:51:58;;;;;;;205.23;97.97;;;5.90;99.90;;;4.39;100.00;101651.22;5067877;28;20040;-72
2024/01/21 14:54:27;;;;;;;100.70;55.75;;;5.80;99.90;;;4.08;100.00;101606.25;5065915;28;20049;-71
2024/01/21 14:56:54;;;;;;;72.82;47.95;;;5.80;99.90;;;3.71;100.00;101564.59;5073453;28;20068;-73
2024/01/21 14:59:24;;;;;;;68.10;46.35;;;5.80;99.90;;;4.02;100.00;101638.25;5047917;28;20053;-72
2024/01/21 15:01:52;;;;;;;50.58;35.85;;;5.60;99.90;;;4.03;100.00;101640.00;5053113;28;20049;-75
2024/01/21 15:04:20;;;;;;;44.70;28.92;;;5.60;99.90;;;4.05;100.00;101650.47;5071034;28;20048;-73
2024/01/21 15:06:48;;;;;;;43.35;31.17;;;5.60;1.00;;;3.80;100.00;101622.13;5065186;28;20040;-72
2024/01/21 15:09:15;;;;;;;37.65;29.38;;;5.50;1.00;;;3.77;100.00;101627.25;5049091;28;20053;-75
2024/01/21 15:11:43;;;;;;;38.08;27.83;;;5.40;1.00;;;3.77;100.00;101632.47;5060860;28;20041;-73
2024/01/21 15:14:30;;;;;;;31.35;25.25;;;5.40;1.00;;;3.83;100.00;101652.56;5059676;28;20044;-73
2024/01/21 15:16:58;;;;;;;28.40;22.00;;;5.40;48.40;;;3.68;100.00;101614.00;5059390;28;20128;-75
2024/01/21 15:19:25;;;;;;;27.33;22.40;;;5.30;99.90;;;3.76;100.00;101646.31;5050590;28;20056;-74
2024/01/21 15:21:54;;;;;;;30.17;23.08;;;5.30;99.90;;;3.72;100.00;101654.00;5044755;28;20063;-75
2024/01/21 15:24:22;;;;;;;28.90;23.25;;;5.20;1.00;;;3.59;100.00;101664.09;5052537;28;20052;-73
2024/01/21 15:26:49;;;;;;;33.95;25.80;;;5.20;99.90;;;3.04;100.00;101577.69;5065025;28;20373;-74
2024/01/21 15:29:20;;;;;;;31.85;23.02;;;5.10;99.90;;;3.44;100.00;101664.59;5036807;28;20168;-74
2024/01/21 15:31:47;;;;;;;32.22;22.38;;;5.30;99.90;;;3.47;100.00;101684.59;5072248;28;20045;-75
2024/01/21 15:34:16;;;;;;;28.73;23.38;;;5.00;99.90;;;3.33;100.00;101661.69;5063483;28;20575;-75
2024/01/21 15:36:44;;;;;;;30.95;21.98;;;4.90;1.00;;;3.23;100.00;101652.75;5039214;28;20128;-76
2024/01/21 15:39:11;;;;;;;26.73;19.05;;;4.90;92.40;;;3.35;100.00;101673.03;5065213;22;20028;-75
2024/01/21 15:41:38;;;;;;;24.85;18.52;;;5.80;1.00;;;3.30;100.00;101664.22;5039980;28;20045;-74
2024/01/21 15:44:06;;;;;;;25.90;20.80;;;4.80;99.90;;;3.27;100.00;101661.53;5044451;28;20047;-74
2024/01/21 15:46:33;;;;;;;27.48;22.83;;;4.90;1.00;;;3.23;100.00;101675.31;5063239;28;20056;-75
2024/01/21 15:49:00;;;;;;;29.55;23.02;;;4.80;1.00;;;3.20;100.00;101681.31;5076375;28;20109;-77
2024/01/21 15:51:28;;;;;;;31.40;22.45;;;4.80;1.00;;;3.06;100.00;101672.22;5064160;28;20067;-77
2024/01/21 15:53:56;;;;;;;28.02;20.83;;;4.70;1.00;;;3.15;100.00;101688.09;5059634;28;20126;-75
2024/01/21 15:56:23;;;;;;;25.08;19.73;;;4.60;1.00;;;3.10;100.00;101689.69;5083325;28;20055;-77
2024/01/21 15:58:51;;;;;;;25.83;20.17;;;4.80;1.00;;;2.92;100.00;101670.13;5083276;28;20044;-76
2024/01/21 16:01:19;;;;;;;29.73;22.25;;;4.50;99.90;;;2.90;100.00;101681.34;5078800;28;20164;-76
2024/01/21 16:03:46;;;;;;;30.67;23.00;;;4.50;99.90;;;2.85;100.00;101676.00;5068523;28;20083;-76
2024/01/21 16:06:14;;;;;;;70.55;43.00;;;5.10;1.00;;;2.81;100.00;101687.13;5057051;28;20055;-76
2024/01/21 16:08:42;;;;;;;72.13;42.78;;;4.40;99.90;;;2.68;100.00;101678.97;5047052;28;20512;-76
2024/01/21 16:11:11;;;;;;;69.00;40.63;;;4.40;1.00;;;2.69;100.00;101692.84;5081608;28;20044;-76
2024/01/21 16:13:41;;;;;;;70.35;40.63;;;4.20;1.00;;;2.64;100.00;101695.28;5065451;28;20079;-75
2024/01/21 16:16:09;;;;;;;171.43;86.97;;;4.20;99.90;;;2.51;100.00;101686.25;5055069;28;20055;-75
2024/01/21 16:18:36;;;;;;;165.57;85.07;;;4.10;52.00;;;2.44;100.00;101679.13;5077800;28;20097;-76
2024/01/21 16:21:05;;;;;;;84.60;47.13;;;4.80;99.90;;;2.46;100.00;101685.25;5060692;28;20082;-75
2024/01/21 16:23:34;;;;;;;71.55;40.85;;;4.00;1.00;;;2.35;100.00;101684.94;5045769;28;20472;-77
2024/01/21 16:26:04;;;;;;;61.83;38.17;;;4.00;28.50;;;2.34;100.00;101693.56;5060310;28;20098;-76
2024/01/21 16:28:32;;;;;;;52.50;31.63;;;4.00;91.90;;;2.36;100.00;101701.38;5058872;28;20418;-76
2024/01/21 16:30:59;;;;;;;45.03;28.27;;;3.90;99.90;;;2.26;100.00;101689.81;5070396;28;20036;-76
2024/01/21 16:33:26;;;;;;;34.90;24.73;;;3.80;99.90;;;2.33;100.00;101709.06;5048837;28;20379;-75
2024/01/21 16:35:55;;;;;;;32.70;23.90;;;3.90;99.90;;;2.22;100.00;101698.34;5057869;28;20052;-76
2024/01/21 16:38:28;;;;;;;30.10;21.80;;;3.80;1.00;;;2.23;100.00;101695.78;5076436;28;20175;-76
2024/01/21 16:40:55;;;;;;;35.35;24.70;;;3.80;1.00;;;2.22;100.00;101703.56;5050088;28;20093;-76
2024/01/21 16:43:23;;;;;;;37.83;25.40;;;3.70;1.00;;;2.17;100.00;101699.91;5076848;28;20048;-76
2024/01/21 16:45:51;;;;;;;43.08;30.08;;;3.80;6.70;;;2.18;100.00;101691.28;5055959;28;20115;-76
2024/01/21 16:48:22;;;;;;;37.53;26.08;;;3.60;81.50;;;2.09;100.00;101686.66;5076745;28;20888;-75
2024/01/21 16:50:56;;;;;;;36.53;25.13;;;4.40;99.90;;;2.06;100.00;101707.34;5062306;28;20131;-76
2024/01/21 16:53:30;;;;;;;36.40;25.05;;;3.70;87.50;;;2.04;100.00;101709.03;5062253;28;20075;-76
2024/01/21 16:55:59;;;;;;;41.75;28.63;;;3.60;99.90;;;2.02;100.00;101703.75;5059962;28;20040;-76
2024/01/21 16:58:30;;;;;;;35.28;27.60;;;3.70;1.00;;;1.98;100.00;101696.72;5049061;28;20152;-76
2024/01/21 17:01:00;;;;;;;34.95;26.10;;;3.60;1.00;;;2.07;100.00;101712.59;5053500;28;20099;-75
2024/01/21 17:03:28;;;;;;;37.53;26.05;;;3.60;1.00;;;2.05;100.00;101713.38;5056994;28;20460;-76
2024/01/21 17:05:58;;;;;;;36.40;26.92;;;3.70;1.00;;;2.01;100.00;101711.53;5056025;28;20491;-77
2024/01/21 17:08:25;;;;;;;34.58;24.80;;;3.60;1.00;;;2.03;100.00;101709.84;5053395;28;20101;-75
2024/01/21 17:11:03;;;;;;;36.70;26.27;;;4.20;22.20;;;2.11;100.00;101716.19;5082416;28;20044;-76
2024/01/21 17:13:30;;;;;;;33.75;24.58;;;3.70;89.00;;;2.08;100.00;101714.38;5071239;28;20120;-76
2024/01/21 17:16:03;;;;;;;;;;;3.70;33.60;;;2.05;100.00;101703.00;5088998;28;20047;-76
2024/01/21 17:18:40;;;;;;;29.00;22.05;;;3.60;99.90;;;2.05;100.00;101715.97;5065089;28;20040;-76
2024/01/21 17:21:08;;;;;;;34.38;26.23;;;3.60;99.90;;;2.08;100.00;101710.88;5065066;28;20047;-76
2024/01/21 17:23:41;;;;;;;34.58;24.38;;;3.60;99.90;;;2.10;100.00;101714.41;5049939;28;20047;-76
2024/01/21 17:26:12;;;;;;;124.78;51.75;;;3.60;99.90;;;2.06;100.00;101705.66;5080155;28;20456;-76
2024/01/21 17:28:42;;;;;;;166.30;64.97;;;3.60;99.90;;;2.16;100.00;101718.91;5069695;28;20048;-76
2024/01/21 17:31:09;;;;;;;132.00;55.55;;;3.70;99.90;;;2.13;100.00;101714.53;5088935;28;20059;-76
2024/01/21 17:33:42;;;;;;;95.53;45.92;;;3.70;96.40;;;2.07;100.00;101697.03;5089340;28;20039;-76
2024/01/21 17:36:16;;;;;;;83.35;40.97;;;3.70;99.90;;;2.03;100.00;101704.66;5067186;28;20048;-76
2024/01/21 17:38:52;;;;;;;72.38;36.72;;;3.70;99.90;;;2.06;100.00;101705.66;5070980;28;20035;-77
2024/01/21 17:41:30;;;;;;;75.82;38.63;;;3.70;99.90;;;2.15;100.00;101711.97;5069221;28;20040;-74
2024/01/21 17:44:00;;;;;;;64.07;39.95;;;3.60;99.90;;;2.08;100.00;101701.38;5066729;28;20554;-76
2024/01/21 17:46:27;;;;;;;99.45;63.38;;;3.70;99.90;;;2.18;100.00;101704.25;5063546;28;20040;-76
2024/01/21 17:49:01;;;;;;;130.80;85.45;;;3.60;99.90;;;2.13;100.00;101692.03;5068972;28;20438;-74
2024/01/21 17:51:30;;;;;;;171.75;115.63;;;3.70;99.90;;;2.11;100.00;101691.09;5085244;28;20500;-76
2024/01/21 17:53:57;;;;;;;84.55;59.17;;;3.70;99.90;;;2.15;100.00;101704.16;5078839;28;20059;-75
2024/01/21 17:56:26;;;;;;;48.63;36.90;;;3.70;99.90;;;2.16;100.00;101699.03;5049474;28;20054;-76
2024/01/21 17:58:55;;;;;;;55.88;40.42;;;3.70;99.90;;;2.12;100.00;101694.59;5067997;28;20052;-76
2024/01/21 18:01:23;;;;;;;41.92;33.35;;;3.70;99.90;;;2.12;100.00;101689.41;5071818;28;20071;-76
2024/01/21 18:03:51;;;;;;;42.05;32.70;;;3.90;99.90;;;2.20;100.00;101693.09;5062657;28;20136;-76
2024/01/21 18:06:19;;;;;;;40.40;33.47;;;3.70;99.90;;;2.24;100.00;101697.56;5070397;28;20044;-75
2024/01/21 18:08:52;;;;;;;42.10;32.90;;;3.70;99.90;;;2.22;100.00;101682.78;5070845;28;20043;-75
2024/01/21 18:11:20;;;;;;;30.67;26.50;;;2.30;99.90;;;2.21;100.00;101675.81;5071092;28;20077;-76
2024/01/21 18:13:47;;;;;;;32.97;25.52;;;3.80;99.90;;;2.30;100.00;101673.50;5071305;28;20097;-76
2024/01/21 18:16:15;;;;;;;32.22;23.25;;;3.80;99.90;;;2.24;100.00;101662.91;5088847;28;20053;-76
2024/01/21 18:18:42;;;;;;;33.17;24.48;;;3.80;99.90;;;2.27;100.00;101665.59;5087788;28;21021;-76
2024/01/21 18:21:17;;;;;;;28.48;21.67;;;3.80;99.90;;;2.25;100.00;101669.88;5089658;28;20127;-76
2024/01/21 18:23:47;;;;;;;28.52;21.80;;;3.80;99.90;;;2.22;100.00;101662.84;5054272;28;20601;-76
2024/01/21 18:26:14;;;;;;;22.77;19.13;;;3.80;99.90;;;2.24;100.00;101673.31;5078156;28;20167;-76
2024/01/21 18:28:42;;;;;;;28.42;22.15;;;3.80;99.90;;;2.23;100.00;101653.38;5062118;28;20051;-77
2024/01/21 18:31:12;;;;;;;30.02;22.48;;;3.70;99.90;;;2.06;100.00;101624.25;5062781;28;20052;-77
2024/01/21 18:33:40;;;;;;;26.83;22.35;;;3.80;99.90;;;2.19;100.00;101643.72;5070890;28;20056;-76
2024/01/21 18:36:08;;;;;;;29.20;23.33;;;5.20;99.90;;;2.18;100.00;101640.22;5050385;28;20052;-77
2024/01/21 18:38:44;;;;;;;26.10;19.75;;;3.80;99.90;;;2.26;100.00;101654.34;5053232;28;20134;-76
2024/01/21 18:41:18;;;;;;;25.30;17.98;;;3.80;99.90;;;2.27;100.00;101657.81;5077672;28;20067;-77
2024/01/21 18:43:45;;;;;;;26.40;19.65;;;3.80;99.90;;;2.21;100.00;101657.63;5067170;28;20064;-77
2024/01/21 18:46:16;;;;;;;26.38;20.45;;;3.90;99.90;;;2.26;100.00;101658.66;5084537;28;20048;-77
2024/01/21 18:48:44;;;;;;;29.90;22.00;;;3.90;99.90;;;2.28;100.00;101643.13;5068853;28;20138;-77
2024/01/21 18:51:13;;;;;;;31.17;20.85;;;3.90;99.90;;;2.18;100.00;101631.53;5067715;28;20139;-77
2024/01/21 18:53:43;;;;;;;28.15;21.52;;;3.80;99.90;;;2.25;100.00;101643.91;5069016;28;20542;-77
2024/01/21 18:56:25;;;;;;;29.23;19.67;;;3.80;99.90;;;2.33;100.00;101644.13;5049087;28;20136;-77
2024/01/21 18:59:52;;;;;;;32.35;24.25;;;3.90;99.90;;;2.28;100.00;101636.19;5056358;28;20082;-77
2024/01/21 19:02:37;;;;;;;36.15;26.13;;;3.80;99.90;;;2.31;100.00;101643.22;5008323;28;20570;-77
2024/01/21 19:05:09;;;;;;;32.10;23.95;;;3.90;99.90;;;2.30;100.00;101652.72;5050209;28;20151;-77
2024/01/21 19:08:16;;;;;;;29.17;22.50;;;3.80;99.90;;;2.30;100.00;101652.72;5057942;28;20056;-78
2024/01/21 19:11:37;;;;;;;25.75;20.95;;;3.90;99.90;;;2.28;100.00;101635.34;5074099;28;20055;-78
2024/01/21 19:14:29;;;;;;;32.70;24.38;;;3.80;99.90;;;2.35;100.00;101642.47;5072938;28;20086;-78
2024/01/21 19:17:25;;;;;;;30.45;22.77;;;3.80;99.90;;;2.28;100.00;101628.41;5068753;28;20102;-75
2024/01/21 19:19:59;;;;;;;27.85;21.52;;;3.90;99.90;;;2.38;100.00;101640.84;5061860;28;20040;-75
2024/01/21 19:22:40;;;;;;;28.70;21.27;;;3.80;99.90;;;2.34;100.00;101628.63;5062325;28;20046;-75
2024/01/21 19:25:11;;;;;;;26.27;20.25;;;3.90;99.90;;;2.35;100.00;101617.38;5058440;28;20040;-75
2024/01/21 19:27:55;;;;;;;23.48;19.23;;;4.00;99.90;;;2.43;100.00;101627.13;5056700;28;20576;-75
2024/01/21 19:30:26;;;;;;;25.02;20.40;;;3.90;99.90;;;2.48;100.00;101629.00;5055211;28;20067;-76
2024/01/21 19:33:00;;;;;;;31.95;23.27;;;3.90;99.90;;;2.40;100.00;101614.91;5063541;28;20604;-76
2024/01/21 19:35:34;;;;;;;31.48;23.77;;;3.90;99.90;;;2.48;100.00;101617.72;5078579;28;20119;-76
2024/01/21 19:38:12;;;;;;;32.47;24.60;;;4.00;99.90;;;2.48;100.00;101616.03;5066715;28;20036;-76
2024/01/21 19:40:41;;;;;;;32.03;24.20;;;4.00;99.90;;;2.47;100.00;101602.97;5091437;28;20043;-75
2024/01/21 19:43:10;;;;;;;34.65;23.83;;;3.90;99.90;;;2.44;100.00;101603.78;5070426;28;20127;-75
2024/01/21 19:45:45;;;;;;;28.50;21.80;;;3.90;99.90;;;2.48;100.00;101603.03;5064727;28;20140;-76
2024/01/21 19:48:49;;;;;;;23.40;19.30;;;4.00;99.90;;;2.44;100.00;101590.81;5052832;28;20063;-76
2024/01/21 19:51:58;;;;;;;20.40;17.50;;;4.00;99.90;;;2.38;100.00;101575.91;5087455;28;20700;-76
2024/01/21 19:54:39;;;;;;;22.00;17.48;;;4.00;99.90;;;2.40;100.00;101581.13;5057846;28;20044;-75
2024/01/21 19:57:24;;;;;;;20.90;18.02;;;4.00;99.90;;;2.41;100.00;101581.19;5066260;28;20114;-76
2024/01/21 20:00:18;;;;;;;24.98;19.50;;;4.00;99.90;;;2.45;100.00;101573.47;5062208;28;20042;-76
2024/01/21 20:02:57;;;;;;;23.13;18.23;;;3.90;99.90;;;2.52;100.00;101572.84;5068169;28;20646;-76
2024/01/21 20:05:46;;;;;;;21.63;18.33;;;4.00;99.90;;;2.50;100.00;101566.72;5038182;28;20047;-76
2024/01/21 20:08:24;;;;;;;24.60;19.92;;;4.00;99.90;;;2.54;100.00;101569.41;5065564;28;20064;-76
2024/01/21 20:10:54;;;;;;;25.85;18.58;;;4.00;99.90;;;2.55;100.00;101562.53;5065012;28;20060;-76
2024/01/21 20:13:31;;;;;;;24.58;19.00;;;4.00;99.90;;;2.41;100.00;101533.53;5044639;28;20056;-75
2024/01/21 20:16:39;;;;;;;27.27;20.42;;;4.00;99.90;;;2.55;100.00;101553.00;5060393;28;20040;-76
2024/01/21 20:20:02;;;;;;;28.13;18.92;;;4.00;99.90;;;2.52;100.00;101547.72;5075826;28;20076;-74
2024/01/21 20:23:01;;;;;;;29.77;19.70;;;4.00;99.90;;;2.46;100.00;101534.56;5052515;28;20047;-75
2024/01/21 20:25:33;;;;;;;23.48;17.33;;;4.10;99.90;;;2.48;100.00;101539.78;5058312;28;20040;-75
2024/01/21 20:28:13;;;;;;;27.90;19.98;;;4.00;99.90;;;2.46;100.00;101513.78;5063584;28;20041;-75
2024/01/21 20:31:20;;;;;;;53.88;34.35;;;4.00;99.90;;;2.54;100.00;101532.19;5051230;28;20147;-76
2024/01/21 20:34:12;;;;;;;77.53;44.15;;;4.00;99.90;;;2.48;100.00;101527.69;5080367;28;20047;-75
2024/01/21 20:36:50;;;;;;;61.65;39.97;;;4.00;99.90;;;2.40;100.00;101514.47;5080489;28;20047;-75
2024/01/21 20:39:23;;;;;;;56.72;38.90;;;4.10;99.90;;;2.37;100.00;101516.09;5064605;28;20456;-75
2024/01/21 20:42:00;;;;;;;50.60;35.63;;;4.00;99.90;;;2.46;100.00;101534.56;5079233;28;20045;-76
2024/01/21 20:44:44;;;;;;;38.95;29.20;;;4.00;99.90;;;2.45;100.00;101525.00;5061083;28;20051;-76
2024/01/21 20:47:24;;;;;;;31.48;24.23;;;4.00;99.90;;;2.41;100.00;101516.25;5065126;28;20049;-75
2024/01/21 20:50:04;;;;;;;55.28;35.92;;;4.00;99.90;;;2.45;100.00;101509.44;5060951;28;20058;-75
2024/01/21 20:52:41;;;;;;;97.60;59.97;;;4.00;99.90;;;2.48;100.00;101511.22;5055452;28;20048;-76
2024/01/21 20:55:55;;;;;;;94.80;57.67;;;4.00;99.90;;;2.50;100.00;101502.63;5063970;28;20117;-75
2024/01/21 20:58:34;;;;;;;104.70;57.17;;;4.00;99.90;;;2.52;100.00;101500.09;5071040;28;20051;-76
2024/01/21 21:01:08;;;;;;;104.25;54.42;;;4.00;99.90;;;2.38;100.00;101471.09;5062770;28;20048;-76
2024/01/21 21:03:40;;;;;;;79.22;44.05;;;4.00;99.90;;;2.41;100.00;101463.38;5065273;28;20145;-76
2024/01/21 21:06:09;;;;;;;57.92;35.00;;;4.00;99.90;;;2.46;100.00;101458.31;5063207;28;20048;-76
2024/01/21 21:08:40;;;;;;;47.00;32.10;;;4.00;99.90;;;2.42;100.00;101434.00;5063131;28;20045;-76
2024/01/21 21:11:09;;;;;;;40.40;28.67;;;3.90;99.90;;;2.44;100.00;101436.63;5066716;28;20536;-76
2024/01/21 21:13:44;;;;;;;38.38;28.70;;;3.90;99.90;;;2.40;100.00;101423.56;5047020;28;20759;-76
2024/01/21 21:16:18;;;;;;;38.15;28.02;;;4.00;99.90;;;2.45;100.00;101436.69;5068702;28;20048;-77
2024/01/21 21:18:46;;;;;;;35.03;25.50;;;3.90;99.90;;;2.34;100.00;101422.53;5073813;28;20050;-77
2024/01/21 21:21:17;;;;;;;34.08;25.23;;;4.10;99.90;;;2.44;100.00;101431.44;5051343;28;20032;-78
2024/01/21 21:23:44;;;;;;;40.55;24.25;;;3.90;99.90;;;2.36;100.00;101429.53;5073029;28;20569;-77
2024/01/21 21:26:12;;;;;;;38.58;27.90;;;3.90;99.90;;;2.36;100.00;101416.53;5073003;28;20040;-76
2024/01/21 21:28:39;;;;;;;31.27;22.23;;;3.80;99.90;;;2.26;100.00;101399.84;5091052;28;20040;-78
2024/01/21 21:31:06;;;;;;;32.95;23.60;;;3.90;99.90;;;2.31;100.00;101402.53;5062855;28;20058;-76
2024/01/21 21:33:33;;;;;;;29.73;20.95;;;3.80;99.90;;;2.22;100.00;101397.09;5055558;28;20048;-76
2024/01/21 21:36:01;;;;;;;25.95;20.42;;;3.80;99.90;;;2.20;100.00;101393.59;5090276;28;20063;-76
2024/01/21 21:38:31;;;;;;;21.27;19.00;;;4.80;99.90;;;2.13;100.00;101388.22;5071691;28;20055;-78
2024/01/21 21:40:59;;;;;;;20.98;16.95;;;3.70;99.90;;;2.16;100.00;101390.03;5056941;28;20055;-74
2024/01/21 21:43:27;;;;;;;22.75;17.85;;;3.60;99.90;;;2.07;100.00;101384.56;5070229;28;20046;-74
2024/01/21 21:45:54;;;;;;;21.48;16.60;;;3.60;99.90;;;2.10;100.00;101392.44;5048335;28;20046;-73
2024/01/21 21:48:21;;;;;;;20.13;16.02;;;3.60;99.90;;;2.08;100.00;101383.72;5085330;28;20055;-74
2024/01/21 21:50:49;;;;;;;18.65;15.85;;;3.60;99.90;;;2.05;100.00;101370.66;5075356;28;20043;-74
2024/01/21 21:53:20;;;;;;;16.60;14.48;;;3.60;99.90;;;2.06;100.00;101377.63;5068315;28;20517;-73
2024/01/21 21:55:47;;;;;;;;;;;3.50;99.90;;;1.97;100.00;101381.75;5089191;28;20036;-74
2024/01/21 21:58:15;;;;;;;19.02;15.80;;;3.50;99.90;;;1.94;100.00;101383.38;5054657;28;19928;-73
2024/01/21 22:00:42;;;;;;;53.78;26.17;;;4.10;99.90;;;1.93;100.00;101382.47;5089530;28;20121;-74
2024/01/21 22:03:10;;;;;;;44.33;23.27;;;3.50;99.90;;;1.86;100.00;101362.38;5053367;28;20048;-76
2024/01/21 22:05:39;;;;;;;106.28;39.65;;;3.50;99.90;;;1.89;100.00;101364.19;5081934;28;20052;-77
2024/01/21 22:08:07;;;;;;;71.00;31.30;;;3.50;99.90;;;1.78;100.00;101333.63;5070455;28;20048;-73
2024/01/21 22:10:35;;;;;;;49.97;24.52;;;3.40;99.90;;;1.73;100.00;101334.31;5062495;28;20539;-76
2024/01/21 22:13:03;;;;;;;45.78;23.30;;;4.10;99.90;;;1.83;100.00;101350.19;5072051;28;20428;-75
2024/01/21 22:15:31;;;;;;;36.47;20.50;;;3.40;99.90;;;1.79;100.00;101344.88;5088850;28;20563;-75
2024/01/21 22:17:58;;;;;;;32.60;17.95;;;3.40;99.90;;;1.75;100.00;101337.84;5072379;28;20398;-77
2024/01/21 22:20:25;;;;;;;34.65;19.60;;;3.40;99.90;;;1.64;100.00;101322.88;5091072;28;20098;-77
2024/01/21 22:22:53;;;;;;;49.63;23.45;;;3.30;99.90;;;1.66;100.00;101336.75;5056154;28;20072;-77
2024/01/21 22:25:20;;;;;;;38.53;20.48;;;3.30;99.90;;;1.64;100.00;101335.84;5069735;28;20044;-77
2024/01/21 22:27:47;;;;;;;36.10;18.13;;;3.20;99.90;;;1.53;100.00;101332.06;5071669;28;20052;-77
2024/01/21 22:30:14;;;;;;;28.65;17.60;;;3.20;99.90;;;1.50;100.00;101340.63;5072430;28;20067;-77
2024/01/21 22:32:42;;;;;;;32.67;17.23;;;3.20;99.90;;;1.50;100.00;101352.72;5055702;28;20161;-77
2024/01/21 22:35:09;;;;;;;32.10;18.77;;;3.00;99.90;;;1.29;100.00;101316.66;5089221;28;20106;-77
2024/01/21 22:37:36;;;;;;;30.95;17.90;;;3.00;99.90;;;1.31;100.00;101335.75;5069464;28;20048;-77
2024/01/21 22:40:04;;;;;;;31.52;18.45;;;3.10;99.90;;;1.35;100.00;101338.47;5055495;28;20135;-77
2024/01/21 22:42:31;;;;;;;25.92;16.80;;;3.00;99.90;;;1.26;100.00;101331.31;5068910;28;20094;-77
2024/01/21 22:44:58;;;;;;;32.95;17.35;;;2.90;99.90;;;1.27;100.00;101335.66;5067447;28;20064;-77
2024/01/21 22:47:26;;;;;;;45.17;24.50;;;2.90;99.90;;;1.17;100.00;101315.47;5045356;28;20059;-77
2024/01/21 22:49:53;;;;;;;40.95;19.52;;;2.80;99.90;;;1.21;100.00;101319.03;5070949;28;20055;-77
2024/01/21 22:52:22;;;;;;;42.30;23.90;;;2.90;99.90;;;1.27;100.00;101314.91;5058766;28;20044;-77
2024/01/21 22:54:50;;;;;;;51.97;22.80;;;2.90;1.00;;;1.36;100.00;101336.75;5073551;28;20040;-77